sensor_id;sensor_type;location;lat;lon;timestamp;pressure;altitude;pressure_sealevel;temperature;humidity
16355;BME280;8287;51.644;8.494;2023-04-08T00:02:17;100965.97;;;6.09;89.20
16355;BME280;8287;51.644;8.494;2023-04-08T00:04:43;100961.00;;;6.17;89.70
16355;BME280;8287;51.644;8.494;2023-04-08T00:07:10;100961.53;;;6.24;89.49
16355;BME280;8287;51.644;8.494;2023-04-08T00:09:36;100958.88;;;6.19;89.00
16355;BME280;8287;51.644;8.494;2023-04-08T00:12:03;100958.09;;;6.19;88.77
16355;BME280;8287;51.644;8.494;2023-04-08T00:14:30;100958.09;;;6.19;88.53
16355;BME280;8287;51.644;8.494;2023-04-08T00:16:57;100953.34;;;6.16;87.96
16355;BME280;8287;51.644;8.494;2023-04-08T00:19:24;100961.00;;;6.17;86.91
16355;BME280;8287;51.644;8.494;2023-04-08T00:21:51;100958.59;;;6.06;87.30
16355;BME280;8287;51.644;8.494;2023-04-08T00:24:18;100965.69;;;6.10;87.12
16355;BME280;8287;51.644;8.494;2023-04-08T00:26:44;100959.09;;;5.93;87.79
16355;BME280;8287;51.644;8.494;2023-04-08T00:29:11;100959.09;;;5.98;88.31
16355;BME280;8287;51.644;8.494;2023-04-08T00:31:38;100965.41;;;5.97;87.82
16355;BME280;8287;51.644;8.494;2023-04-08T00:34:04;100959.06;;;5.88;88.36
16355;BME280;8287;51.644;8.494;2023-04-08T00:36:32;100960.91;;;5.87;87.94
16355;BME280;8287;51.644;8.494;2023-04-08T00:39:00;100966.94;;;5.83;88.67
16355;BME280;8287;51.644;8.494;2023-04-08T00:41:28;100958.53;;;5.86;88.20
16355;BME280;8287;51.644;8.494;2023-04-08T00:43:55;100960.06;;;5.82;87.80
16355;BME280;8287;51.644;8.494;2023-04-08T00:46:21;100965.38;;;5.87;87.35
16355;BME280;8287;51.644;8.494;2023-04-08T00:48:48;100969.50;;;5.78;86.97
16355;BME280;8287;51.644;8.494;2023-04-08T00:51:14;100971.84;;;5.74;88.12
16355;BME280;8287;51.644;8.494;2023-04-08T00:53:42;100979.22;;;5.72;87.73
16355;BME280;8287;51.644;8.494;2023-04-08T00:56:09;100968.41;;;5.69;87.92
16355;BME280;8287;51.644;8.494;2023-04-08T00:58:36;100976.78;;;5.61;87.72
16355;BME280;8287;51.644;8.494;2023-04-08T01:01:06;100977.28;;;5.53;87.38
16355;BME280;8287;51.644;8.494;2023-04-08T01:03:41;100972.53;;;5.55;87.51
16355;BME280;8287;51.644;8.494;2023-04-08T01:06:14;100976.88;;;5.34;87.62
16355;BME280;8287;51.644;8.494;2023-04-08T01:08:47;100981.38;;;5.39;88.02
16355;BME280;8287;51.644;8.494;2023-04-08T01:11:16;100980.91;;;5.42;87.99
16355;BME280;8287;51.644;8.494;2023-04-08T01:13:45;100982.44;;;5.38;87.76
16355;BME280;8287;51.644;8.494;2023-04-08T01:16:13;100978.97;;;5.32;88.25
16355;BME280;8287;51.644;8.494;2023-04-08T01:18:42;100979.28;;;5.36;88.38
16355;BME280;8287;51.644;8.494;2023-04-08T01:21:11;100971.91;;;5.33;88.33
16355;BME280;8287;51.644;8.494;2023-04-08T01:23:41;100971.88;;;5.28;87.96
16355;BME280;8287;51.644;8.494;2023-04-08T01:26:12;100973.41;;;5.24;88.18
16355;BME280;8287;51.644;8.494;2023-04-08T01:28:48;100972.41;;;5.30;88.31
16355;BME280;8287;51.644;8.494;2023-04-08T01:31:17;100982.31;;;5.18;87.77
16355;BME280;8287;51.644;8.494;2023-04-08T01:33:44;100974.66;;;5.16;88.48
16355;BME280;8287;51.644;8.494;2023-04-08T01:36:11;100985.69;;;5.13;89.16
16355;BME280;8287;51.644;8.494;2023-04-08T01:38:38;100987.50;;;5.13;89.05
16355;BME280;8287;51.644;8.494;2023-04-08T01:41:07;100989.06;;;5.09;88.97
16355;BME280;8287;51.644;8.494;2023-04-08T01:43:35;100985.66;;;5.08;88.78
16355;BME280;8287;51.644;8.494;2023-04-08T01:46:05;100980.63;;;5.07;89.30
16355;BME280;8287;51.644;8.494;2023-04-08T01:48:33;100984.13;;;5.12;89.50
16355;BME280;8287;51.644;8.494;2023-04-08T01:51:00;100978.34;;;5.15;89.36
16355;BME280;8287;51.644;8.494;2023-04-08T01:53:27;100971.81;;;5.18;88.76
16355;BME280;8287;51.644;8.494;2023-04-08T01:55:57;100982.25;;;5.13;88.80
16355;BME280;8287;51.644;8.494;2023-04-08T01:58:30;100985.88;;;5.07;89.75
16355;BME280;8287;51.644;8.494;2023-04-08T02:00:59;100992.78;;;5.13;89.57
16355;BME280;8287;51.644;8.494;2023-04-08T02:03:27;100985.16;;;5.11;90.43
16355;BME280;8287;51.644;8.494;2023-04-08T02:05:55;100984.72;;;5.24;90.56
16355;BME280;8287;51.644;8.494;2023-04-08T02:08:22;100983.44;;;5.32;89.58
16355;BME280;8287;51.644;8.494;2023-04-08T02:10:48;100985.31;;;5.36;89.54
16355;BME280;8287;51.644;8.494;2023-04-08T02:13:15;100986.97;;;5.47;88.96
16355;BME280;8287;51.644;8.494;2023-04-08T02:15:46;100988.31;;;5.55;88.38
16355;BME280;8287;51.644;8.494;2023-04-08T02:18:24;100980.97;;;5.57;88.46
16355;BME280;8287;51.644;8.494;2023-04-08T02:20:56;100988.13;;;5.66;87.67
16355;BME280;8287;51.644;8.494;2023-04-08T02:23:26;100987.88;;;5.68;87.33
16355;BME280;8287;51.644;8.494;2023-04-08T02:25:54;100980.50;;;5.70;87.14
16355;BME280;8287;51.644;8.494;2023-04-08T02:28:25;100988.44;;;5.75;87.18
16355;BME280;8287;51.644;8.494;2023-04-08T02:30:53;100992.28;;;5.57;89.17
16355;BME280;8287;51.644;8.494;2023-04-08T02:33:22;100989.88;;;5.56;90.68
16355;BME280;8287;51.644;8.494;2023-04-08T02:35:50;100989.16;;;5.65;90.62
16355;BME280;8287;51.644;8.494;2023-04-08T02:38:19;100987.88;;;5.68;90.95
16355;BME280;8287;51.644;8.494;2023-04-08T02:40:48;100990.50;;;5.73;91.26
16355;BME280;8287;51.644;8.494;2023-04-08T02:43:15;100987.97;;;5.83;90.75
16355;BME280;8287;51.644;8.494;2023-04-08T02:45:42;100995.09;;;5.92;89.56
16355;BME280;8287;51.644;8.494;2023-04-08T02:48:09;101005.13;;;5.95;88.92
16355;BME280;8287;51.644;8.494;2023-04-08T02:50:37;100991.38;;;5.83;89.72
16355;BME280;8287;51.644;8.494;2023-04-08T02:53:04;100997.97;;;5.91;88.81
16355;BME280;8287;51.644;8.494;2023-04-08T02:55:31;101000.13;;;5.99;88.08
16355;BME280;8287;51.644;8.494;2023-04-08T02:57:58;101004.88;;;6.02;87.66
16355;BME280;8287;51.644;8.494;2023-04-08T03:00:24;101009.88;;;6.03;87.91
16355;BME280;8287;51.644;8.494;2023-04-08T03:02:51;101002.75;;;5.99;88.20
16355;BME280;8287;51.644;8.494;2023-04-08T03:05:18;101016.72;;;6.04;88.03
16355;BME280;8287;51.644;8.494;2023-04-08T03:07:46;101010.63;;;5.99;88.56
16355;BME280;8287;51.644;8.494;2023-04-08T03:10:12;101007.75;;;6.00;89.36
16355;BME280;8287;51.644;8.494;2023-04-08T03:12:39;101014.09;;;6.09;89.49
16355;BME280;8287;51.644;8.494;2023-04-08T03:15:06;101010.97;;;6.12;89.27
16355;BME280;8287;51.644;8.494;2023-04-08T03:17:33;101006.25;;;6.14;89.40
16355;BME280;8287;51.644;8.494;2023-04-08T03:20:00;101005.44;;;6.14;89.66
16355;BME280;8287;51.644;8.494;2023-04-08T03:22:29;100998.63;;;6.18;89.37
16355;BME280;8287;51.644;8.494;2023-04-08T03:24:56;101007.56;;;6.22;89.44
16355;BME280;8287;51.644;8.494;2023-04-08T03:27:23;100999.44;;;6.28;89.07
16355;BME280;8287;51.644;8.494;2023-04-08T03:29:50;101001.28;;;6.32;89.18
16355;BME280;8287;51.644;8.494;2023-04-08T03:32:17;101000.50;;;6.32;89.04
16355;BME280;8287;51.644;8.494;2023-04-08T03:34:44;101000.22;;;6.29;89.25
16355;BME280;8287;51.644;8.494;2023-04-08T03:37:10;101007.31;;;6.23;90.57
16355;BME280;8287;51.644;8.494;2023-04-08T03:39:37;101018.41;;;6.30;90.25
16355;BME280;8287;51.644;8.494;2023-04-08T03:42:05;101018.41;;;6.30;91.13
16355;BME280;8287;51.644;8.494;2023-04-08T03:44:32;101023.16;;;6.38;91.16
16355;BME280;8287;51.644;8.494;2023-04-08T03:46:58;101016.31;;;6.42;90.72
16355;BME280;8287;51.644;8.494;2023-04-08T03:49:25;101013.44;;;6.48;91.01
16355;BME280;8287;51.644;8.494;2023-04-08T03:51:51;101015.56;;;6.51;90.69
16355;BME280;8287;51.644;8.494;2023-04-08T03:54:18;101018.72;;;6.53;91.03
16355;BME280;8287;51.644;8.494;2023-04-08T03:56:44;101009.50;;;6.56;91.21
16355;BME280;8287;51.644;8.494;2023-04-08T03:59:12;101018.97;;;6.62;90.92
16355;BME280;8287;51.644;8.494;2023-04-08T04:01:39;101010.31;;;6.66;90.93
16355;BME280;8287;51.644;8.494;2023-04-08T04:04:05;101016.63;;;6.65;91.35
16355;BME280;8287;51.644;8.494;2023-04-08T04:06:32;101024.53;;;6.65;91.71
16355;BME280;8287;51.644;8.494;2023-04-08T04:08:58;101017.94;;;6.58;92.75
16355;BME280;8287;51.644;8.494;2023-04-08T04:11:25;101026.81;;;6.32;94.51
16355;BME280;8287;51.644;8.494;2023-04-08T04:13:52;101025.78;;;6.38;95.00
16355;BME280;8287;51.644;8.494;2023-04-08T04:16:19;101032.38;;;6.45;95.24
16355;BME280;8287;51.644;8.494;2023-04-08T04:18:46;101037.13;;;6.48;94.91
16355;BME280;8287;51.644;8.494;2023-04-08T04:21:13;101038.97;;;6.48;94.83
16355;BME280;8287;51.644;8.494;2023-04-08T04:23:39;101036.88;;;6.50;94.81
16355;BME280;8287;51.644;8.494;2023-04-08T04:26:07;101029.25;;;6.53;94.69
16355;BME280;8287;51.644;8.494;2023-04-08T04:28:34;101041.59;;;6.53;93.48
16355;BME280;8287;51.644;8.494;2023-04-08T04:31:00;101040.22;;;6.31;94.50
16355;BME280;8287;51.644;8.494;2023-04-08T04:33:28;101034.50;;;6.43;94.75
16355;BME280;8287;51.644;8.494;2023-04-08T04:35:55;101028.47;;;6.58;93.85
16355;BME280;8287;51.644;8.494;2023-04-08T04:38:22;101037.16;;;6.63;93.53
16355;BME280;8287;51.644;8.494;2023-04-08T04:40:48;101030.84;;;6.69;92.81
16355;BME280;8287;51.644;8.494;2023-04-08T04:43:15;101027.69;;;6.72;92.53
16355;BME280;8287;51.644;8.494;2023-04-08T04:45:41;101036.38;;;6.78;92.21
16355;BME280;8287;51.644;8.494;2023-04-08T04:48:09;101032.97;;;6.77;92.19
16355;BME280;8287;51.644;8.494;2023-04-08T04:50:37;101034.81;;;6.77;92.59
16355;BME280;8287;51.644;8.494;2023-04-08T04:53:03;101031.13;;;6.78;93.16
16355;BME280;8287;51.644;8.494;2023-04-08T04:55:30;101025.59;;;6.79;93.25
16355;BME280;8287;51.644;8.494;2023-04-08T04:57:56;101021.94;;;6.85;92.38
16355;BME280;8287;51.644;8.494;2023-04-08T05:00:23;101030.88;;;6.89;92.57
16355;BME280;8287;51.644;8.494;2023-04-08T05:02:50;101029.81;;;6.90;91.85
16355;BME280;8287;51.644;8.494;2023-04-08T05:05:16;101035.88;;;6.86;93.06
16355;BME280;8287;51.644;8.494;2023-04-08T05:07:44;101034.84;;;6.92;92.88
16355;BME280;8287;51.644;8.494;2023-04-08T05:10:11;101037.72;;;6.95;92.21
16355;BME280;8287;51.644;8.494;2023-04-08T05:12:37;101048.28;;;7.00;91.96
16355;BME280;8287;51.644;8.494;2023-04-08T05:15:05;101055.13;;;7.01;92.23
16355;BME280;8287;51.644;8.494;2023-04-08T05:17:32;101054.06;;;7.02;92.45
16355;BME280;8287;51.644;8.494;2023-04-08T05:19:58;101055.13;;;7.06;92.39
16355;BME280;8287;51.644;8.494;2023-04-08T05:22:25;101056.44;;;7.09;92.88
16355;BME280;8287;51.644;8.494;2023-04-08T05:24:53;101053.28;;;7.12;92.48
16355;BME280;8287;51.644;8.494;2023-04-08T05:27:20;101058.56;;;7.17;91.68
16355;BME280;8287;51.644;8.494;2023-04-08T05:29:46;101056.47;;;7.14;91.82
16355;BME280;8287;51.644;8.494;2023-04-08T05:32:13;101070.69;;;7.18;91.99
16355;BME280;8287;51.644;8.494;2023-04-08T05:34:41;101074.63;;;7.20;91.71
16355;BME280;8287;51.644;8.494;2023-04-08T05:37:07;101062.00;;;7.17;91.91
16355;BME280;8287;51.644;8.494;2023-04-08T05:39:34;101068.56;;;7.15;92.28
16355;BME280;8287;51.644;8.494;2023-04-08T05:42:02;101074.13;;;7.18;91.84
16355;BME280;8287;51.644;8.494;2023-04-08T05:44:28;101076.19;;;7.16;91.92
16355;BME280;8287;51.644;8.494;2023-04-08T05:46:55;101082.53;;;7.20;91.94
16355;BME280;8287;51.644;8.494;2023-04-08T05:49:22;101079.38;;;7.18;91.86
16355;BME280;8287;51.644;8.494;2023-04-08T05:51:49;101085.97;;;7.26;91.90
16355;BME280;8287;51.644;8.494;2023-04-08T05:54:15;101085.72;;;7.27;91.59
16355;BME280;8287;51.644;8.494;2023-04-08T05:56:42;101087.53;;;7.27;91.41
16355;BME280;8287;51.644;8.494;2023-04-08T05:59:11;101089.66;;;7.25;91.36
16355;BME280;8287;51.644;8.494;2023-04-08T06:01:38;101094.38;;;7.28;91.74
16355;BME280;8287;51.644;8.494;2023-04-08T06:04:05;101096.25;;;7.32;91.74
16355;BME280;8287;51.644;8.494;2023-04-08T06:06:31;101092.81;;;7.37;91.48
16355;BME280;8287;51.644;8.494;2023-04-08T06:08:58;101099.69;;;7.38;91.16
16355;BME280;8287;51.644;8.494;2023-04-08T06:11:24;101103.63;;;7.35;91.63
16355;BME280;8287;51.644;8.494;2023-04-08T06:13:51;101101.53;;;7.42;91.56
16355;BME280;8287;51.644;8.494;2023-04-08T06:16:19;101097.56;;;7.45;90.88
16355;BME280;8287;51.644;8.494;2023-04-08T06:18:45;101106.00;;;7.47;90.64
16355;BME280;8287;51.644;8.494;2023-04-08T06:21:12;101114.44;;;7.44;90.28
16355;BME280;8287;51.644;8.494;2023-04-08T06:23:38;101108.13;;;7.50;90.02
16355;BME280;8287;51.644;8.494;2023-04-08T06:26:05;101115.47;;;7.53;89.33
16355;BME280;8287;51.644;8.494;2023-04-08T06:28:32;101109.69;;;7.56;89.27
16355;BME280;8287;51.644;8.494;2023-04-08T06:30:59;101118.38;;;7.56;89.18
16355;BME280;8287;51.644;8.494;2023-04-08T06:33:27;101115.75;;;7.61;89.00
16355;BME280;8287;51.644;8.494;2023-04-08T06:36:00;101116.28;;;7.63;88.99
16355;BME280;8287;51.644;8.494;2023-04-08T06:38:28;101119.19;;;7.67;89.05
16355;BME280;8287;51.644;8.494;2023-04-08T06:40:54;101128.94;;;7.71;88.96
16355;BME280;8287;51.644;8.494;2023-04-08T06:43:21;101119.44;;;7.70;89.04
16355;BME280;8287;51.644;8.494;2023-04-08T06:45:48;101127.88;;;7.77;89.05
16355;BME280;8287;51.644;8.494;2023-04-08T06:48:16;101127.06;;;7.77;88.61
16355;BME280;8287;51.644;8.494;2023-04-08T06:50:44;101136.56;;;7.78;89.09
16355;BME280;8287;51.644;8.494;2023-04-08T06:53:11;101137.88;;;7.85;88.98
16355;BME280;8287;51.644;8.494;2023-04-08T06:55:37;101143.94;;;7.86;88.47
16355;BME280;8287;51.644;8.494;2023-04-08T06:58:04;101138.66;;;7.91;88.65
16355;BME280;8287;51.644;8.494;2023-04-08T07:00:30;101144.72;;;7.91;88.97
16355;BME280;8287;51.644;8.494;2023-04-08T07:02:57;101147.38;;;7.96;89.29
16355;BME280;8287;51.644;8.494;2023-04-08T07:05:23;101149.50;;;7.84;89.61
16355;BME280;8287;51.644;8.494;2023-04-08T07:07:51;101138.94;;;7.84;89.97
16355;BME280;8287;51.644;8.494;2023-04-08T07:10:18;101157.38;;;7.99;88.93
16355;BME280;8287;51.644;8.494;2023-04-08T07:12:45;101148.16;;;8.02;88.34
16355;BME280;8287;51.644;8.494;2023-04-08T07:15:12;101152.91;;;8.05;87.01
16355;BME280;8287;51.644;8.494;2023-04-08T07:17:39;101152.09;;;8.04;86.79
16355;BME280;8287;51.644;8.494;2023-04-08T07:20:06;101159.22;;;8.09;86.32
16355;BME280;8287;51.644;8.494;2023-04-08T07:22:33;101168.47;;;8.11;85.81
16355;BME280;8287;51.644;8.494;2023-04-08T07:25:01;101166.59;;;8.12;85.96
16355;BME280;8287;51.644;8.494;2023-04-08T07:27:28;101175.34;;;7.82;87.03
16355;BME280;8287;51.644;8.494;2023-04-08T07:29:55;101178.50;;;7.99;86.89
16355;BME280;8287;51.644;8.494;2023-04-08T07:32:22;101174.25;;;8.08;86.71
16355;BME280;8287;51.644;8.494;2023-04-08T07:34:48;101184.28;;;8.11;87.03
16355;BME280;8287;51.644;8.494;2023-04-08T07:37:15;101196.47;;;7.92;87.77
16355;BME280;8287;51.644;8.494;2023-04-08T07:39:42;101196.97;;;7.99;88.44
16355;BME280;8287;51.644;8.494;2023-04-08T07:42:10;101194.81;;;8.16;87.89
16355;BME280;8287;51.644;8.494;2023-04-08T07:44:37;101187.47;;;8.23;86.49
16355;BME280;8287;51.644;8.494;2023-04-08T07:47:03;101181.13;;;8.29;85.60
16355;BME280;8287;51.644;8.494;2023-04-08T07:49:30;101180.59;;;8.27;85.78
16355;BME280;8287;51.644;8.494;2023-04-08T07:51:56;101184.81;;;8.28;86.10
16355;BME280;8287;51.644;8.494;2023-04-08T07:54:23;101190.34;;;8.32;85.99
16355;BME280;8287;51.644;8.494;2023-04-08T07:56:49;101190.06;;;8.33;85.00
16355;BME280;8287;51.644;8.494;2023-04-08T07:59:17;101194.81;;;8.41;84.35
16355;BME280;8287;51.644;8.494;2023-04-08T08:01:44;101201.44;;;8.34;84.09
16355;BME280;8287;51.644;8.494;2023-04-08T08:04:11;101201.69;;;8.32;84.92
16355;BME280;8287;51.644;8.494;2023-04-08T08:06:37;101207.50;;;8.24;85.63
16355;BME280;8287;51.644;8.494;2023-04-08T08:09:04;101201.19;;;8.30;85.53
16355;BME280;8287;51.644;8.494;2023-04-08T08:11:31;101201.16;;;8.45;84.45
16355;BME280;8287;51.644;8.494;2023-04-08T08:13:57;101201.38;;;8.54;83.93
16355;BME280;8287;51.644;8.494;2023-04-08T08:16:28;101205.59;;;8.55;83.76
16355;BME280;8287;51.644;8.494;2023-04-08T08:18:54;101207.44;;;8.59;84.30
16355;BME280;8287;51.644;8.494;2023-04-08T08:21:21;101207.94;;;8.66;84.22
16355;BME280;8287;51.644;8.494;2023-04-08T08:23:48;101200.25;;;8.75;83.75
16355;BME280;8287;51.644;8.494;2023-04-08T08:26:14;101207.38;;;8.79;83.29
16355;BME280;8287;51.644;8.494;2023-04-08T08:28:41;101212.94;;;8.73;83.99
16355;BME280;8287;51.644;8.494;2023-04-08T08:31:07;101213.47;;;8.75;85.35
16355;BME280;8287;51.644;8.494;2023-04-08T08:33:35;101214.22;;;8.85;85.22
16355;BME280;8287;51.644;8.494;2023-04-08T08:36:02;101209.97;;;8.94;84.06
16355;BME280;8287;51.644;8.494;2023-04-08T08:38:29;101225.22;;;9.07;83.64
16355;BME280;8287;51.644;8.494;2023-04-08T08:40:57;101222.00;;;9.15;82.67
16355;BME280;8287;51.644;8.494;2023-04-08T08:43:24;101219.72;;;8.94;82.73
16355;BME280;8287;51.644;8.494;2023-04-08T08:45:52;101228.47;;;8.89;85.08
16355;BME280;8287;51.644;8.494;2023-04-08T08:48:19;101226.31;;;9.01;85.61
16355;BME280;8287;51.644;8.494;2023-04-08T08:50:47;101229.34;;;9.23;84.98
16355;BME280;8287;51.644;8.494;2023-04-08T08:53:13;101220.28;;;9.34;83.80
16355;BME280;8287;51.644;8.494;2023-04-08T08:55:40;101234.00;;;9.46;82.97
16355;BME280;8287;51.644;8.494;2023-04-08T08:58:07;101232.09;;;9.52;82.48
16355;BME280;8287;51.644;8.494;2023-04-08T09:00:35;101229.66;;;9.60;81.91
16355;BME280;8287;51.644;8.494;2023-04-08T09:03:15;101234.91;;;9.65;82.10
16355;BME280;8287;51.644;8.494;2023-04-08T09:05:52;101227.69;;;9.75;81.96
16355;BME280;8287;51.644;8.494;2023-04-08T09:08:23;101231.13;;;9.76;82.26
16355;BME280;8287;51.644;8.494;2023-04-08T09:10:50;101233.56;;;9.68;84.05
16355;BME280;8287;51.644;8.494;2023-04-08T09:13:17;101227.38;;;9.82;83.12
16355;BME280;8287;51.644;8.494;2023-04-08T09:16:01;101226.84;;;9.85;82.83
16355;BME280;8287;51.644;8.494;2023-04-08T09:18:29;101230.53;;;9.84;82.89
16355;BME280;8287;51.644;8.494;2023-04-08T09:20:58;101240.69;;;10.05;82.55
16355;BME280;8287;51.644;8.494;2023-04-08T09:23:41;101229.72;;;10.22;81.49
16355;BME280;8287;51.644;8.494;2023-04-08T09:26:10;101240.78;;;9.57;83.08
16355;BME280;8287;51.644;8.494;2023-04-08T09:28:38;101245.22;;;10.00;82.74
16355;BME280;8287;51.644;8.494;2023-04-08T09:31:17;101250.34;;;10.25;81.69
16355;BME280;8287;51.644;8.494;2023-04-08T09:33:45;101252.50;;;10.18;81.28
16355;BME280;8287;51.644;8.494;2023-04-08T09:36:14;101259.72;;;10.41;81.79
16355;BME280;8287;51.644;8.494;2023-04-08T09:38:44;101251.28;;;10.62;80.22
16355;BME280;8287;51.644;8.494;2023-04-08T09:41:13;101246.38;;;10.74;80.47
16355;BME280;8287;51.644;8.494;2023-04-08T09:43:42;101243.84;;;10.88;78.44
16355;BME280;8287;51.644;8.494;2023-04-08T09:46:23;101252.16;;;11.00;78.62
16355;BME280;8287;51.644;8.494;2023-04-08T09:49:00;101252.81;;;10.45;78.06
16355;BME280;8287;51.644;8.494;2023-04-08T09:51:39;101257.63;;;10.38;79.78
16355;BME280;8287;51.644;8.494;2023-04-08T09:54:11;101264.75;;;10.66;79.87
16355;BME280;8287;51.644;8.494;2023-04-08T09:56:43;101262.19;;;10.84;79.59
16355;BME280;8287;51.644;8.494;2023-04-08T09:59:14;101260.06;;;11.05;78.60
16355;BME280;8287;51.644;8.494;2023-04-08T10:01:52;101262.09;;;11.13;78.43
16355;BME280;8287;51.644;8.494;2023-04-08T10:04:22;101252.28;;;11.32;76.75
16355;BME280;8287;51.644;8.494;2023-04-08T10:06:56;101254.25;;;11.45;75.75
16355;BME280;8287;51.644;8.494;2023-04-08T10:09:26;101251.81;;;11.48;76.47
16355;BME280;8287;51.644;8.494;2023-04-08T10:11:54;101270.09;;;11.50;75.67
16355;BME280;8287;51.644;8.494;2023-04-08T10:14:31;101254.81;;;11.42;77.58
16355;BME280;8287;51.644;8.494;2023-04-08T10:17:23;101258.47;;;11.46;77.17
16355;BME280;8287;51.644;8.494;2023-04-08T10:20:04;101264.09;;;11.63;78.08
16355;BME280;8287;51.644;8.494;2023-04-08T10:22:57;101254.84;;;11.79;76.05
16355;BME280;8287;51.644;8.494;2023-04-08T10:25:28;101260.63;;;11.02;76.54
16355;BME280;8287;51.644;8.494;2023-04-08T10:27:55;101257.16;;;11.25;79.28
16355;BME280;8287;51.644;8.494;2023-04-08T10:30:39;101251.16;;;11.75;78.57
16355;BME280;8287;51.644;8.494;2023-04-08T10:33:18;101248.72;;;12.10;76.19
16355;BME280;8287;51.644;8.494;2023-04-08T10:35:53;101253.91;;;11.70;74.24
16355;BME280;8287;51.644;8.494;2023-04-08T10:38:25;101257.28;;;11.75;75.04
16355;BME280;8287;51.644;8.494;2023-04-08T10:40:58;101256.72;;;11.18;77.97
16355;BME280;8287;51.644;8.494;2023-04-08T10:43:25;101255.97;;;11.91;76.32
16355;BME280;8287;51.644;8.494;2023-04-08T10:45:57;101256.25;;;12.22;74.47
16355;BME280;8287;51.644;8.494;2023-04-08T10:48:24;101258.25;;;12.30;75.07
16355;BME280;8287;51.644;8.494;2023-04-08T10:50:53;101261.19;;;12.42;75.13
16355;BME280;8287;51.644;8.494;2023-04-08T10:53:29;101264.47;;;12.52;75.51
16355;BME280;8287;51.644;8.494;2023-04-08T10:56:04;101258.00;;;12.58;74.83
16355;BME280;8287;51.644;8.494;2023-04-08T10:58:34;101262.22;;;12.59;74.57
16355;BME280;8287;51.644;8.494;2023-04-08T11:01:03;101268.97;;;12.52;74.07
16355;BME280;8287;51.644;8.494;2023-04-08T11:03:31;101255.91;;;12.69;72.86
16355;BME280;8287;51.644;8.494;2023-04-08T11:05:59;101255.53;;;12.62;73.29
16355;BME280;8287;51.644;8.494;2023-04-08T11:08:28;101253.97;;;12.88;73.24
16355;BME280;8287;51.644;8.494;2023-04-08T11:10:55;101266.78;;;12.99;72.08
16355;BME280;8287;51.644;8.494;2023-04-08T11:13:25;101261.75;;;13.11;71.75
16355;BME280;8287;51.644;8.494;2023-04-08T11:15:53;101262.91;;;12.92;71.63
16355;BME280;8287;51.644;8.494;2023-04-08T11:18:24;101257.19;;;12.71;73.08
16355;BME280;8287;51.644;8.494;2023-04-08T11:20:54;101247.91;;;12.82;73.24
16355;BME280;8287;51.644;8.494;2023-04-08T11:23:21;101255.81;;;12.87;73.08
16355;BME280;8287;51.644;8.494;2023-04-08T11:25:51;101257.91;;;13.04;73.94
16355;BME280;8287;51.644;8.494;2023-04-08T11:28:19;101256.31;;;13.03;72.35
16355;BME280;8287;51.644;8.494;2023-04-08T11:30:46;101256.41;;;13.24;72.54
16355;BME280;8287;51.644;8.494;2023-04-08T11:33:13;101249.81;;;13.09;71.39
16355;BME280;8287;51.644;8.494;2023-04-08T11:35:41;101259.75;;;13.17;72.19
16355;BME280;8287;51.644;8.494;2023-04-08T11:38:09;101255.25;;;13.17;71.93
16355;BME280;8287;51.644;8.494;2023-04-08T11:40:36;101240.47;;;13.46;69.81
16355;BME280;8287;51.644;8.494;2023-04-08T11:43:09;101251.09;;;12.84;71.05
16355;BME280;8287;51.644;8.494;2023-04-08T11:45:37;101249.28;;;13.33;72.28
16355;BME280;8287;51.644;8.494;2023-04-08T11:48:08;101252.50;;;13.44;70.76
16355;BME280;8287;51.644;8.494;2023-04-08T11:50:35;101246.19;;;13.40;71.00
16355;BME280;8287;51.644;8.494;2023-04-08T11:53:01;101255.94;;;13.58;71.52
16355;BME280;8287;51.644;8.494;2023-04-08T11:55:29;101250.03;;;13.69;71.25
16355;BME280;8287;51.644;8.494;2023-04-08T11:58:01;101255.38;;;13.69;69.67
16355;BME280;8287;51.644;8.494;2023-04-08T12:00:29;101258.34;;;13.68;70.10
16355;BME280;8287;51.644;8.494;2023-04-08T12:02:57;101254.78;;;13.72;70.85
16355;BME280;8287;51.644;8.494;2023-04-08T12:05:24;101263.00;;;13.84;70.20
16355;BME280;8287;51.644;8.494;2023-04-08T12:07:50;101256.78;;;13.89;69.66
16355;BME280;8287;51.644;8.494;2023-04-08T12:10:17;101253.56;;;13.78;70.49
16355;BME280;8287;51.644;8.494;2023-04-08T12:12:44;101253.94;;;13.85;69.71
16355;BME280;8287;51.644;8.494;2023-04-08T12:15:10;101257.94;;;13.74;70.48
16355;BME280;8287;51.644;8.494;2023-04-08T12:17:38;101248.78;;;13.89;70.42
16355;BME280;8287;51.644;8.494;2023-04-08T12:20:06;101256.72;;;14.02;70.83
16355;BME280;8287;51.644;8.494;2023-04-08T12:22:32;101252.28;;;13.98;69.37
16355;BME280;8287;51.644;8.494;2023-04-08T12:24:59;101253.63;;;14.09;69.68
16355;BME280;8287;51.644;8.494;2023-04-08T12:27:27;101255.97;;;14.10;68.74
16355;BME280;8287;51.644;8.494;2023-04-08T12:29:53;101258.16;;;14.08;69.05
16355;BME280;8287;51.644;8.494;2023-04-08T12:32:20;101262.41;;;14.09;69.51
16355;BME280;8287;51.644;8.494;2023-04-08T12:34:51;101263.94;;;14.02;68.67
16355;BME280;8287;51.644;8.494;2023-04-08T12:37:18;101262.91;;;13.89;70.23
16355;BME280;8287;51.644;8.494;2023-04-08T12:39:45;101269.09;;;13.98;69.61
16355;BME280;8287;51.644;8.494;2023-04-08T12:42:12;101260.84;;;14.08;69.67
16355;BME280;8287;51.644;8.494;2023-04-08T12:44:38;101260.03;;;14.21;69.64
16355;BME280;8287;51.644;8.494;2023-04-08T12:47:05;101260.50;;;14.23;69.19
16355;BME280;8287;51.644;8.494;2023-04-08T12:49:32;101272.09;;;13.13;70.26
16355;BME280;8287;51.644;8.494;2023-04-08T12:51:59;101265.59;;;13.05;71.50
16355;BME280;8287;51.644;8.494;2023-04-08T12:54:26;101264.28;;;13.03;71.99
16355;BME280;8287;51.644;8.494;2023-04-08T12:56:53;101261.78;;;13.46;72.20
16355;BME280;8287;51.644;8.494;2023-04-08T12:59:21;101260.38;;;13.49;72.48
16355;BME280;8287;51.644;8.494;2023-04-08T13:01:47;101254.50;;;13.38;72.45
16355;BME280;8287;51.644;8.494;2023-04-08T13:04:14;101262.31;;;13.70;71.68
16355;BME280;8287;51.644;8.494;2023-04-08T13:06:40;101254.34;;;13.79;72.11
16355;BME280;8287;51.644;8.494;2023-04-08T13:09:08;101258.16;;;13.86;70.97
16355;BME280;8287;51.644;8.494;2023-04-08T13:11:35;101256.72;;;13.80;71.20
16355;BME280;8287;51.644;8.494;2023-04-08T13:14:01;101255.03;;;13.62;69.92